sensor_id;sensor_type;location;lat;lon;timestamp;pressure;altitude;pressure_sealevel;temperature;humidity
41515;BME280;27247;48.020;16.720;2023-03-01T00:01:21;100984.06;;;-1.91;81.62
41515;BME280;27247;48.020;16.720;2023-03-01T00:05:32;100990.13;;;-1.90;82.32
41515;BME280;27247;48.020;16.720;2023-03-01T00:09:42;100994.69;;;-1.75;82.23
41515;BME280;27247;48.020;16.720;2023-03-01T00:13:55;100990.41;;;-2.17;80.13
41515;BME280;27247;48.020;16.720;2023-03-01T00:18:05;100990.41;;;-2.17;79.92
41515;BME280;27247;48.020;16.720;2023-03-01T00:22:16;100988.25;;;-2.28;80.18
41515;BME280;27247;48.020;16.720;2023-03-01T00:26:27;100991.44;;;-2.21;80.99
41515;BME280;27247;48.020;16.720;2023-03-01T00:30:37;100998.13;;;-2.14;81.13
41515;BME280;27247;48.020;16.720;2023-03-01T00:34:48;100985.59;;;-2.06;81.52
41515;BME280;27247;48.020;16.720;2023-03-01T00:39:07;100990.22;;;-1.92;82.24
41515;BME280;27247;48.020;16.720;2023-03-01T00:43:18;100986.25;;;-1.82;82.44
41515;BME280;27247;48.020;16.720;2023-03-01T00:47:29;100983.97;;;-1.89;82.47
41515;BME280;27247;48.020;16.720;2023-03-01T00:51:39;100974.56;;;-1.94;83.02
41515;BME280;27247;48.020;16.720;2023-03-01T00:55:51;100975.84;;;-1.83;82.60
41515;BME280;27247;48.020;16.720;2023-03-01T01:00:03;100970.53;;;-1.82;83.06
41515;BME280;27247;48.020;16.720;2023-03-01T01:04:14;100964.25;;;-1.78;83.38
41515;BME280;27247;48.020;16.720;2023-03-01T01:08:24;100963.53;;;-1.63;83.66
41515;BME280;27247;48.020;16.720;2023-03-01T01:12:35;100963.47;;;-1.61;84.29
41515;BME280;27247;48.020;16.720;2023-03-01T01:16:45;100954.47;;;-1.55;84.67
41515;BME280;27247;48.020;16.720;2023-03-01T01:20:56;100954.34;;;-1.52;85.30
41515;BME280;27247;48.020;16.720;2023-03-01T01:25:06;100945.03;;;-1.41;85.57
41515;BME280;27247;48.020;16.720;2023-03-01T01:29:17;100941.84;;;-1.29;85.65
41515;BME280;27247;48.020;16.720;2023-03-01T01:33:27;100946.88;;;-1.24;85.85
41515;BME280;27247;48.020;16.720;2023-03-01T01:37:38;100955.06;;;-1.13;85.37
41515;BME280;27247;48.020;16.720;2023-03-01T01:41:49;100951.53;;;-1.12;85.88
41515;BME280;27247;48.020;16.720;2023-03-01T01:46:02;100940.25;;;-1.14;86.22
41515;BME280;27247;48.020;16.720;2023-03-01T01:50:16;100935.56;;;-1.07;86.46
41515;BME280;27247;48.020;16.720;2023-03-01T01:54:32;100939.75;;;-1.03;86.49
41515;BME280;27247;48.020;16.720;2023-03-01T01:58:45;100931.44;;;-0.94;85.94
41515;BME280;27247;48.020;16.720;2023-03-01T02:03:00;100929.06;;;-0.99;85.38
41515;BME280;27247;48.020;16.720;2023-03-01T02:07:17;100929.81;;;-0.97;85.85
41515;BME280;27247;48.020;16.720;2023-03-01T02:11:30;100922.03;;;-0.98;86.58
41515;BME280;27247;48.020;16.720;2023-03-01T02:15:41;100921.03;;;-0.78;86.13
41515;BME280;27247;48.020;16.720;2023-03-01T02:24:43;100914.78;;;-0.58;84.92
41515;BME280;27247;48.020;16.720;2023-03-01T02:28:59;100917.47;;;-0.60;85.21
41515;BME280;27247;48.020;16.720;2023-03-01T02:33:09;100915.94;;;-0.64;85.89
41515;BME280;27247;48.020;16.720;2023-03-01T02:37:21;100906.06;;;-0.76;85.87
41515;BME280;27247;48.020;16.720;2023-03-01T02:41:36;100904.75;;;-0.85;86.02
41515;BME280;27247;48.020;16.720;2023-03-01T02:45:51;100903.13;;;-0.87;86.26
41515;BME280;27247;48.020;16.720;2023-03-01T02:50:12;100892.78;;;-0.73;85.98
41515;BME280;27247;48.020;16.720;2023-03-01T02:58:44;100895.66;;;-0.78;86.85
41515;BME280;27247;48.020;16.720;2023-03-01T03:03:01;100887.22;;;-0.67;87.38
41515;BME280;27247;48.020;16.720;2023-03-01T03:07:11;100889.53;;;-0.61;86.90
41515;BME280;27247;48.020;16.720;2023-03-01T03:11:22;100884.13;;;-0.58;87.20
41515;BME280;27247;48.020;16.720;2023-03-01T03:15:32;100884.06;;;-0.56;86.73
41515;BME280;27247;48.020;16.720;2023-03-01T03:19:45;100879.19;;;-0.47;85.84
41515;BME280;27247;48.020;16.720;2023-03-01T03:23:56;100885.50;;;-0.51;85.30
41515;BME280;27247;48.020;16.720;2023-03-01T03:28:07;100884.25;;;-0.44;84.98
41515;BME280;27247;48.020;16.720;2023-03-01T03:32:20;100881.72;;;-0.45;85.59
41515;BME280;27247;48.020;16.720;2023-03-01T03:36:30;100886.03;;;-0.44;85.54
41515;BME280;27247;48.020;16.720;2023-03-01T03:40:43;100879.00;;;-0.44;85.81
41515;BME280;27247;48.020;16.720;2023-03-01T03:44:54;100882.41;;;-0.42;86.24
41515;BME280;27247;48.020;16.720;2023-03-01T03:49:05;100878.94;;;-0.42;86.81
41515;BME280;27247;48.020;16.720;2023-03-01T03:53:15;100880.41;;;-0.54;86.26
41515;BME280;27247;48.020;16.720;2023-03-01T03:57:25;100877.06;;;-0.40;86.25
41515;BME280;27247;48.020;16.720;2023-03-01T04:01:36;100876.03;;;-0.53;86.74
41515;BME280;27247;48.020;16.720;2023-03-01T04:05:47;100874.25;;;-0.53;87.16
41515;BME280;27247;48.020;16.720;2023-03-01T04:09:57;100871.84;;;-0.57;87.13
41515;BME280;27247;48.020;16.720;2023-03-01T04:14:07;100873.00;;;-0.46;87.49
41515;BME280;27247;48.020;16.720;2023-03-01T04:18:19;100875.94;;;-0.52;87.21
41515;BME280;27247;48.020;16.720;2023-03-01T04:22:30;100874.25;;;-0.53;87.34
41515;BME280;27247;48.020;16.720;2023-03-01T04:26:42;100874.63;;;-0.43;87.30
41515;BME280;27247;48.020;16.720;2023-03-01T04:30:54;100873.97;;;-0.31;87.53
41515;BME280;27247;48.020;16.720;2023-03-01T04:35:05;100873.41;;;-0.20;86.94
41515;BME280;27247;48.020;16.720;2023-03-01T04:39:15;100875.59;;;-0.28;87.52
41515;BME280;27247;48.020;16.720;2023-03-01T04:43:25;100876.56;;;-0.47;87.79
41515;BME280;27247;48.020;16.720;2023-03-01T04:47:36;100877.84;;;-0.38;87.34
41515;BME280;27247;48.020;16.720;2023-03-01T04:51:48;100878.94;;;-0.42;87.39
41515;BME280;27247;48.020;16.720;2023-03-01T04:55:59;100873.69;;;-0.42;87.50
41515;BME280;27247;48.020;16.720;2023-03-01T05:00:13;100884.19;;;-0.42;87.45
41515;BME280;27247;48.020;16.720;2023-03-01T05:04:30;100884.72;;;-0.36;87.40
41515;BME280;27247;48.020;16.720;2023-03-01T05:08:41;100885.81;;;-0.40;87.08
41515;BME280;27247;48.020;16.720;2023-03-01T05:12:51;100895.16;;;-0.51;88.02
41515;BME280;27247;48.020;16.720;2023-03-01T05:17:03;100890.53;;;-0.46;88.08
41515;BME280;27247;48.020;16.720;2023-03-01T05:21:14;100891.06;;;-0.40;87.85
41515;BME280;27247;48.020;16.720;2023-03-01T05:25:26;100893.47;;;-0.52;87.72
41515;BME280;27247;48.020;16.720;2023-03-01T05:29:36;100891.13;;;-0.41;87.58
41515;BME280;27247;48.020;16.720;2023-03-01T05:33:49;100886.78;;;-0.25;87.01
41515;BME280;27247;48.020;16.720;2023-03-01T05:37:59;100887.22;;;-0.17;86.91
41515;BME280;27247;48.020;16.720;2023-03-01T05:42:11;100896.34;;;-0.24;87.67
41515;BME280;27247;48.020;16.720;2023-03-01T05:46:21;100898.78;;;-0.54;88.29
41515;BME280;27247;48.020;16.720;2023-03-01T05:50:52;100906.13;;;-0.43;88.70
41515;BME280;27247;48.020;16.720;2023-03-01T05:55:03;100904.72;;;-0.33;88.81
41515;BME280;27247;48.020;16.720;2023-03-01T05:59:13;100906.94;;;-0.25;88.54
41515;BME280;27247;48.020;16.720;2023-03-01T06:03:26;100902.03;;;-0.16;88.33
41515;BME280;27247;48.020;16.720;2023-03-01T06:07:36;100909.53;;;-0.08;87.46
41515;BME280;27247;48.020;16.720;2023-03-01T06:11:47;100907.66;;;-0.06;87.15
41515;BME280;27247;48.020;16.720;2023-03-01T06:15:57;100910.69;;;0.04;87.19
41515;BME280;27247;48.020;16.720;2023-03-01T06:20:16;100913.31;;;0.04;86.81
41515;BME280;27247;48.020;16.720;2023-03-01T06:24:27;100918.22;;;0.10;86.57
41515;BME280;27247;48.020;16.720;2023-03-01T06:28:38;100919.06;;;0.10;86.19
41515;BME280;27247;48.020;16.720;2023-03-01T06:32:49;100909.41;;;0.11;86.10
41515;BME280;27247;48.020;16.720;2023-03-01T06:36:59;100921.47;;;0.15;85.76
41515;BME280;27247;48.020;16.720;2023-03-01T06:41:12;100920.84;;;0.10;85.49
41515;BME280;27247;48.020;16.720;2023-03-01T06:45:23;100921.13;;;0.21;85.04
41515;BME280;27247;48.020;16.720;2023-03-01T06:49:34;100928.16;;;0.20;84.90
41515;BME280;27247;48.020;16.720;2023-03-01T06:53:45;100917.16;;;-0.04;85.56
41515;BME280;27247;48.020;16.720;2023-03-01T06:57:57;100915.19;;;0.17;85.41
41515;BME280;27247;48.020;16.720;2023-03-01T07:02:11;100919.34;;;0.21;85.29
41515;BME280;27247;48.020;16.720;2023-03-01T07:06:23;100935.16;;;0.04;85.50
41515;BME280;27247;48.020;16.720;2023-03-01T07:10:33;100933.84;;;0.28;85.81
41515;BME280;27247;48.020;16.720;2023-03-01T07:14:44;100933.69;;;0.31;85.53
41515;BME280;27247;48.020;16.720;2023-03-01T07:18:54;100935.72;;;0.42;85.46
41515;BME280;27247;48.020;16.720;2023-03-01T07:23:05;100935.22;;;0.51;85.11
41515;BME280;27247;48.020;16.720;2023-03-01T07:27:16;100928.59;;;0.60;84.67
41515;BME280;27247;48.020;16.720;2023-03-01T07:31:26;100937.34;;;0.45;84.30
41515;BME280;27247;48.020;16.720;2023-03-01T07:35:38;100922.06;;;0.51;83.43
41515;BME280;27247;48.020;16.720;2023-03-01T07:39:48;100917.22;;;0.59;83.71
41515;BME280;27247;48.020;16.720;2023-03-01T07:43:58;100916.31;;;0.60;82.82
41515;BME280;27247;48.020;16.720;2023-03-01T07:48:09;100925.53;;;0.83;83.17
41515;BME280;27247;48.020;16.720;2023-03-01T07:52:20;100926.78;;;0.92;82.49
41515;BME280;27247;48.020;16.720;2023-03-01T07:56:30;100928.66;;;1.06;82.46
41515;BME280;27247;48.020;16.720;2023-03-01T08:00:41;100923.97;;;1.11;82.16
41515;BME280;27247;48.020;16.720;2023-03-01T08:04:51;100919.88;;;1.21;80.92
41515;BME280;27247;48.020;16.720;2023-03-01T08:09:02;100923.97;;;1.11;81.11
41515;BME280;27247;48.020;16.720;2023-03-01T08:13:12;100925.16;;;1.21;81.04
41515;BME280;27247;48.020;16.720;2023-03-01T08:17:22;100919.31;;;1.16;81.30
41515;BME280;27247;48.020;16.720;2023-03-01T08:21:33;100918.84;;;1.23;80.74
41515;BME280;27247;48.020;16.720;2023-03-01T08:25:47;100903.63;;;1.28;80.88
41515;BME280;27247;48.020;16.720;2023-03-01T08:29:57;100911.47;;;1.44;80.30
41515;BME280;27247;48.020;16.720;2023-03-01T08:34:10;100909.97;;;1.40;80.23
41515;BME280;27247;48.020;16.720;2023-03-01T08:38:21;100897.09;;;1.50;80.11
41515;BME280;27247;48.020;16.720;2023-03-01T08:42:32;100900.59;;;1.65;79.43
41515;BME280;27247;48.020;16.720;2023-03-01T08:46:43;100895.13;;;1.68;78.96
41515;BME280;27247;48.020;16.720;2023-03-01T08:50:55;100896.75;;;1.84;78.57
41515;BME280;27247;48.020;16.720;2023-03-01T08:55:06;100891.00;;;2.06;78.40
41515;BME280;27247;48.020;16.720;2023-03-01T08:59:17;100888.94;;;2.26;77.67
41515;BME280;27247;48.020;16.720;2023-03-01T09:03:28;100875.31;;;2.46;76.99
41515;BME280;27247;48.020;16.720;2023-03-01T09:07:38;100872.94;;;2.55;75.38
41515;BME280;27247;48.020;16.720;2023-03-01T09:11:49;100871.66;;;2.75;74.37
41515;BME280;27247;48.020;16.720;2023-03-01T09:16:03;100866.50;;;3.13;74.24
41515;BME280;27247;48.020;16.720;2023-03-01T09:20:14;100868.03;;;3.43;73.92
41515;BME280;27247;48.020;16.720;2023-03-01T09:24:24;100867.28;;;3.79;72.32
41515;BME280;27247;48.020;16.720;2023-03-01T09:28:36;100859.22;;;4.19;71.79
41515;BME280;27247;48.020;16.720;2023-03-01T09:32:48;100846.25;;;4.63;69.59
41515;BME280;27247;48.020;16.720;2023-03-01T09:36:58;100835.44;;;5.01;68.15
41515;BME280;27247;48.020;16.720;2023-03-01T09:41:23;100830.25;;;5.24;67.63
41515;BME280;27247;48.020;16.720;2023-03-01T09:45:40;100832.16;;;5.22;66.83
41515;BME280;27247;48.020;16.720;2023-03-01T09:50:02;100825.09;;;5.56;65.80
41515;BME280;27247;48.020;16.720;2023-03-01T09:54:14;100820.19;;;5.85;65.95
41515;BME280;27247;48.020;16.720;2023-03-01T09:58:46;100815.34;;;6.12;64.65
41515;BME280;27247;48.020;16.720;2023-03-01T10:03:17;100805.34;;;6.27;63.35
41515;BME280;27247;48.020;16.720;2023-03-01T10:08:02;100797.09;;;6.73;62.62
41515;BME280;27247;48.020;16.720;2023-03-01T10:12:22;100796.34;;;7.24;61.43
41515;BME280;27247;48.020;16.720;2023-03-01T10:21:07;100785.84;;;7.74;59.20
41515;BME280;27247;48.020;16.720;2023-03-01T10:34:33;100757.69;;;8.11;57.61
41515;BME280;27247;48.020;16.720;2023-03-01T10:39:10;100761.97;;;8.33;56.69
41515;BME280;27247;48.020;16.720;2023-03-01T10:43:21;100742.94;;;8.57;56.22
41515;BME280;27247;48.020;16.720;2023-03-01T10:47:33;100731.59;;;9.21;55.89
41515;BME280;27247;48.020;16.720;2023-03-01T10:51:45;100717.91;;;9.80;55.01
41515;BME280;27247;48.020;16.720;2023-03-01T10:55:59;100706.00;;;9.75;54.60
41515;BME280;27247;48.020;16.720;2023-03-01T11:04:20;100705.00;;;9.76;55.00
41515;BME280;27247;48.020;16.720;2023-03-01T11:12:44;100690.78;;;9.57;54.37
41515;BME280;27247;48.020;16.720;2023-03-01T11:17:11;100708.56;;;8.35;56.56
41515;BME280;27247;48.020;16.720;2023-03-01T11:21:24;100707.38;;;8.08;56.99
41515;BME280;27247;48.020;16.720;2023-03-01T11:25:39;100690.63;;;8.56;57.24
41515;BME280;27247;48.020;16.720;2023-03-01T11:30:07;100690.00;;;8.04;56.94
41515;BME280;27247;48.020;16.720;2023-03-01T11:34:36;100689.38;;;8.41;57.02
41515;BME280;27247;48.020;16.720;2023-03-01T11:38:49;100692.59;;;8.54;58.09
41515;BME280;27247;48.020;16.720;2023-03-01T11:43:17;100687.47;;;8.12;58.57
41515;BME280;27247;48.020;16.720;2023-03-01T11:56:40;100694.34;;;8.05;60.12
41515;BME280;27247;48.020;16.720;2023-03-01T12:50:58;100633.41;;;8.02;62.83
41515;BME280;27247;48.020;16.720;2023-03-01T12:55:27;100634.94;;;8.14;62.16
41515;BME280;27247;48.020;16.720;2023-03-01T13:03:56;100630.63;;;8.52;62.49
41515;BME280;27247;48.020;16.720;2023-03-01T13:08:16;100625.88;;;8.46;62.03
41515;BME280;27247;48.020;16.720;2023-03-01T13:12:44;100629.69;;;8.34;62.22
41515;BME280;27247;48.020;16.720;2023-03-01T13:16:55;100618.13;;;8.14;63.32
41515;BME280;27247;48.020;16.720;2023-03-01T13:21:05;100602.59;;;7.99;64.20
41515;BME280;27247;48.020;16.720;2023-03-01T13:25:18;100597.97;;;8.01;64.50
41515;BME280;27247;48.020;16.720;2023-03-01T13:29:44;100603.56;;;8.08;64.64
41515;BME280;27247;48.020;16.720;2023-03-01T13:33:56;100608.47;;;8.03;64.72
41515;BME280;27247;48.020;16.720;2023-03-01T13:38:46;100588.56;;;7.97;66.21
41515;BME280;27247;48.020;16.720;2023-03-01T13:43:27;100592.22;;;7.67;65.03
41515;BME280;27247;48.020;16.720;2023-03-01T13:47:38;100581.56;;;7.67;66.40
41515;BME280;27247;48.020;16.720;2023-03-01T13:51:50;100582.13;;;7.61;67.45
41515;BME280;27247;48.020;16.720;2023-03-01T13:56:07;100574.16;;;7.71;66.40
41515;BME280;27247;48.020;16.720;2023-03-01T14:00:54;100568.13;;;7.69;67.11
41515;BME280;27247;48.020;16.720;2023-03-01T14:05:09;100566.03;;;7.63;66.70
41515;BME280;27247;48.020;16.720;2023-03-01T14:09:24;100551.88;;;7.72;67.49
41515;BME280;27247;48.020;16.720;2023-03-01T14:18:32;100547.41;;;7.73;66.43
41515;BME280;27247;48.020;16.720;2023-03-01T14:22:44;100549.38;;;7.71;67.00
41515;BME280;27247;48.020;16.720;2023-03-01T14:26:55;100554.41;;;7.74;66.66
41515;BME280;27247;48.020;16.720;2023-03-01T14:36:25;100547.69;;;7.60;67.18
41515;BME280;27247;48.020;16.720;2023-03-01T14:40:30;100548.09;;;7.65;66.71
41515;BME280;27247;48.020;16.720;2023-03-01T14:44:43;100540.25;;;7.63;66.38
41515;BME280;27247;48.020;16.720;2023-03-01T14:49:09;100540.81;;;7.57;67.00
41515;BME280;27247;48.020;16.720;2023-03-01T14:53:26;100540.25;;;7.63;67.70
41515;BME280;27247;48.020;16.720;2023-03-01T14:57:43;100535.66;;;7.75;66.40
41515;BME280;27247;48.020;16.720;2023-03-01T15:01:56;100528.66;;;7.64;66.42
41515;BME280;27247;48.020;16.720;2023-03-01T15:06:08;100529.91;;;7.60;66.49
41515;BME280;27247;48.020;16.720;2023-03-01T15:10:25;100532.69;;;7.49;65.84
41515;BME280;27247;48.020;16.720;2023-03-01T15:14:41;100534.78;;;7.46;66.40
41515;BME280;27247;48.020;16.720;2023-03-01T15:18:57;100523.75;;;7.50;66.73
41515;BME280;27247;48.020;16.720;2023-03-01T15:23:25;100534.78;;;7.46;65.96
41515;BME280;27247;48.020;16.720;2023-03-01T15:27:36;100536.06;;;7.51;65.80
41515;BME280;27247;48.020;16.720;2023-03-01T15:32:04;100532.16;;;7.55;66.40
41515;BME280;27247;48.020;16.720;2023-03-01T15:36:39;100528.22;;;7.50;66.89
41515;BME280;27247;48.020;16.720;2023-03-01T15:40:51;100523.59;;;7.61;65.69
41515;BME280;27247;48.020;16.720;2023-03-01T15:45:21;100527.25;;;7.60;66.56
41515;BME280;27247;48.020;16.720;2023-03-01T15:49:41;100517.72;;;7.58;67.87
41515;BME280;27247;48.020;16.720;2023-03-01T15:53:52;100518.84;;;7.55;68.21
41515;BME280;27247;48.020;16.720;2023-03-01T16:02:22;100521.78;;;7.52;67.72
41515;BME280;27247;48.020;16.720;2023-03-01T16:06:33;100516.03;;;7.57;68.21
41515;BME280;27247;48.020;16.720;2023-03-01T16:10:43;100521.94;;;7.60;67.70
41515;BME280;27247;48.020;16.720;2023-03-01T16:14:54;100510.31;;;7.61;67.66
41515;BME280;27247;48.020;16.720;2023-03-01T16:19:07;100512.81;;;7.63;67.15
41515;BME280;27247;48.020;16.720;2023-03-01T16:23:17;100521.78;;;7.62;67.08
41515;BME280;27247;48.020;16.720;2023-03-01T16:27:28;100514.22;;;7.57;66.90
41515;BME280;27247;48.020;16.720;2023-03-01T16:31:39;100514.50;;;7.64;67.01
41515;BME280;27247;48.020;16.720;2023-03-01T16:35:49;100517.59;;;7.59;66.59
41515;BME280;27247;48.020;16.720;2023-03-01T16:39:59;100516.75;;;7.49;67.42
41515;BME280;27247;48.020;16.720;2023-03-01T16:44:10;100510.00;;;7.35;68.01
41515;BME280;27247;48.020;16.720;2023-03-01T16:48:22;100514.31;;;7.27;68.67
41515;BME280;27247;48.020;16.720;2023-03-01T16:52:33;100519.06;;;7.23;68.75
41515;BME280;27247;48.020;16.720;2023-03-01T16:56:43;100517.38;;;7.13;68.97
41515;BME280;27247;48.020;16.720;2023-03-01T17:00:54;100511.78;;;7.16;68.95
41515;BME280;27247;48.020;16.720;2023-03-01T17:05:07;100522.34;;;6.96;69.17
41515;BME280;27247;48.020;16.720;2023-03-01T17:09:18;100518.53;;;6.80;69.84
41515;BME280;27247;48.020;16.720;2023-03-01T17:13:32;100533.34;;;6.82;69.69
41515;BME280;27247;48.020;16.720;2023-03-01T17:17:42;100531.94;;;6.78;70.30
41515;BME280;27247;48.020;16.720;2023-03-01T17:21:53;100544.44;;;6.57;70.90
41515;BME280;27247;48.020;16.720;2023-03-01T17:26:04;100542.25;;;6.71;70.85
41515;BME280;27247;48.020;16.720;2023-03-01T17:30:15;100556.16;;;6.54;70.71
41515;BME280;27247;48.020;16.720;2023-03-01T17:34:25;100550.81;;;6.45;71.21
41515;BME280;27247;48.020;16.720;2023-03-01T17:38:36;100553.63;;;6.53;71.21
41515;BME280;27247;48.020;16.720;2023-03-01T17:42:46;100550.75;;;6.35;71.86
41515;BME280;27247;48.020;16.720;2023-03-01T17:46:57;100548.34;;;6.32;72.76
41515;BME280;27247;48.020;16.720;2023-03-01T17:51:09;100555.88;;;6.27;72.92
41515;BME280;27247;48.020;16.720;2023-03-01T17:55:21;100545.63;;;6.22;72.65
41515;BME280;27247;48.020;16.720;2023-03-01T17:59:35;100551.38;;;6.06;72.87
41515;BME280;27247;48.020;16.720;2023-03-01T18:03:46;100537.91;;;5.98;73.55
41515;BME280;27247;48.020;16.720;2023-03-01T18:07:57;100538.44;;;5.92;73.28
41515;BME280;27247;48.020;16.720;2023-03-01T18:12:08;100543.75;;;5.81;72.60
41515;BME280;27247;48.020;16.720;2023-03-01T18:16:21;100545.63;;;5.69;72.40
41515;BME280;27247;48.020;16.720;2023-03-01T18:20:31;100538.03;;;5.65;73.18
41515;BME280;27247;48.020;16.720;2023-03-01T18:24:44;100540.53;;;5.45;73.00
41515;BME280;27247;48.020;16.720;2023-03-01T18:28:55;100550.09;;;5.26;72.58
41515;BME280;27247;48.020;16.720;2023-03-01T18:33:07;100553.13;;;4.99;74.01
41515;BME280;27247;48.020;16.720;2023-03-01T18:37:17;100537.00;;;4.91;73.75
41515;BME280;27247;48.020;16.720;2023-03-01T18:41:28;100526.69;;;4.65;73.27
41515;BME280;27247;48.020;16.720;2023-03-01T18:45:39;100540.75;;;4.55;72.70
41515;BME280;27247;48.020;16.720;2023-03-01T18:49:49;100542.19;;;4.47;71.97
41515;BME280;27247;48.020;16.720;2023-03-01T18:54:01;100538.31;;;4.18;73.74
41515;BME280;27247;48.020;16.720;2023-03-01T18:58:13;100543.06;;;4.13;74.48
41515;BME280;27247;48.020;16.720;2023-03-01T19:02:25;100539.78;;;3.98;74.18
41515;BME280;27247;48.020;16.720;2023-03-01T19:06:36;100529.19;;;3.87;73.96
41515;BME280;27247;48.020;16.720;2023-03-01T19:10:57;100536.19;;;3.64;74.50
41515;BME280;27247;48.020;16.720;2023-03-01T19:15:09;100549.25;;;3.55;74.84
41515;BME280;27247;48.020;16.720;2023-03-01T19:19:20;100539.81;;;3.39;74.64
41515;BME280;27247;48.020;16.720;2023-03-01T19:23:31;100541.72;;;3.13;75.15
41515;BME280;27247;48.020;16.720;2023-03-01T19:27:46;100533.56;;;3.04;75.47
41515;BME280;27247;48.020;16.720;2023-03-01T19:31:58;100529.06;;;2.93;76.82
41515;BME280;27247;48.020;16.720;2023-03-01T19:36:10;100529.59;;;2.98;77.43
41515;BME280;27247;48.020;16.720;2023-03-01T19:40:22;100532.56;;;2.94;79.38
41515;BME280;27247;48.020;16.720;2023-03-01T19:44:33;100527.59;;;2.89;80.47
41515;BME280;27247;48.020;16.720;2023-03-01T19:48:43;100535.97;;;2.83;81.09
41515;BME280;27247;48.020;16.720;2023-03-01T19:52:55;100532.06;;;2.76;80.97
41515;BME280;27247;48.020;16.720;2023-03-01T19:57:06;100537.56;;;2.73;81.97
41515;BME280;27247;48.020;16.720;2023-03-01T20:01:19;100539.56;;;2.69;81.59
41515;BME280;27247;48.020;16.720;2023-03-01T20:05:34;100536.84;;;2.45;79.22
41515;BME280;27247;48.020;16.720;2023-03-01T20:09:46;100539.34;;;1.83;76.93
41515;BME280;27247;48.020;16.720;2023-03-01T20:13:57;100549.38;;;1.51;78.79
41515;BME280;27247;48.020;16.720;2023-03-01T20:18:09;100557.31;;;1.37;79.79
41515;BME280;27247;48.020;16.720;2023-03-01T20:22:20;100561.34;;;1.43;80.55
41515;BME280;27247;48.020;16.720;2023-03-01T20:26:31;100553.75;;;1.38;79.28
41515;BME280;27247;48.020;16.720;2023-03-01T20:30:43;100554.13;;;1.05;80.45
41515;BME280;27247;48.020;16.720;2023-03-01T20:34:54;100553.94;;;1.08;81.70
41515;BME280;27247;48.020;16.720;2023-03-01T20:39:05;100556.41;;;0.69;83.55
41515;BME280;27247;48.020;16.720;2023-03-01T20:43:16;100562.03;;;0.77;82.59
41515;BME280;27247;48.020;16.720;2023-03-01T20:47:27;100566.78;;;0.99;82.89
41515;BME280;27247;48.020;16.720;2023-03-01T20:51:38;100561.81;;;1.08;84.02
41515;BME280;27247;48.020;16.720;2023-03-01T20:55:49;100550.44;;;1.08;83.30
41515;BME280;27247;48.020;16.720;2023-03-01T21:00:00;100560.31;;;1.04;84.87
41515;BME280;27247;48.020;16.720;2023-03-01T21:04:10;100553.94;;;1.08;83.94
41515;BME280;27247;48.020;16.720;2023-03-01T21:08:22;100565.50;;;1.33;85.00
41515;BME280;27247;48.020;16.720;2023-03-01T21:12:32;100561.69;;;1.51;86.39
41515;BME280;27247;48.020;16.720;2023-03-01T21:16:43;100569.16;;;1.44;86.37
41515;BME280;27247;48.020;16.720;2023-03-01T21:21:05;100559.22;;;1.35;85.43
41515;BME280;27247;48.020;16.720;2023-03-01T21:25:16;100553.78;;;1.51;85.33
41515;BME280;27247;48.020;16.720;2023-03-01T21:29:30;100556.41;;;1.78;86.97
41515;BME280;27247;48.020;16.720;2023-03-01T21:33:55;100555.38;;;1.93;88.73
41515;BME280;27247;48.020;16.720;2023-03-01T21:38:09;100548.03;;;2.11;89.40
41515;BME280;27247;48.020;16.720;2023-03-01T21:42:19;100561.44;;;2.20;89.46
41515;BME280;27247;48.020;16.720;2023-03-01T21:46:32;100551.84;;;2.32;88.56
41515;BME280;27247;48.020;16.720;2023-03-01T21:50:43;100547.69;;;2.03;88.05
41515;BME280;27247;48.020;16.720;2023-03-01T21:54:53;100546.81;;;1.89;89.00
41515;BME280;27247;48.020;16.720;2023-03-01T21:59:06;100542.81;;;1.97;88.03
41515;BME280;27247;48.020;16.720;2023-03-01T22:03:17;100540.75;;;2.14;87.67
41515;BME280;27247;48.020;16.720;2023-03-01T22:07:29;100544.66;;;2.09;87.85
41515;BME280;27247;48.020;16.720;2023-03-01T22:11:51;100538.31;;;1.99;87.65
41515;BME280;27247;48.020;16.720;2023-03-01T22:16:03;100538.47;;;1.83;86.59
41515;BME280;27247;48.020;16.720;2023-03-01T22:20:15;100541.66;;;2.01;86.34
41515;BME280;27247;48.020;16.720;2023-03-01T22:24:25;100548.09;;;1.97;86.27
41515;BME280;27247;48.020;16.720;2023-03-01T22:28:36;100543.13;;;1.79;85.98
41515;BME280;27247;48.020;16.720;2023-03-01T22:32:46;100547.56;;;1.91;85.34
41515;BME280;27247;48.020;16.720;2023-03-01T22:36:56;100551.28;;;2.02;85.74
41515;BME280;27247;48.020;16.720;2023-03-01T22:41:08;100541.94;;;2.10;86.14
41515;BME280;27247;48.020;16.720;2023-03-01T22:45:18;100551.31;;;2.14;86.07
41515;BME280;27247;48.020;16.720;2023-03-01T22:49:29;100550.97;;;2.06;84.59
41515;BME280;27247;48.020;16.720;2023-03-01T22:53:39;100544.28;;;1.88;84.41
41515;BME280;27247;48.020;16.720;2023-03-01T22:57:50;100540.47;;;1.79;84.97
41515;BME280;27247;48.020;16.720;2023-03-01T23:02:00;100541.31;;;1.80;85.89
41515;BME280;27247;48.020;16.720;2023-03-01T23:06:11;100542.19;;;1.93;85.25
41515;BME280;27247;48.020;16.720;2023-03-01T23:10:22;100556.53;;;2.02;85.50
41515;BME280;27247;48.020;16.720;2023-03-01T23:14:33;100546.56;;;2.19;85.58
41515;BME280;27247;48.020;16.720;2023-03-01T23:18:44;100538.25;;;2.38;84.83
41515;BME280;27247;48.020;16.720;2023-03-01T23:22:54;100541.91;;;2.48;83.55
41515;BME280;27247;48.020;16.720;2023-03-01T23:27:10;100538.63;;;2.58;82.91
41515;BME280;27247;48.020;16.720;2023-03-01T23:31:24;100536.84;;;2.58;82.20
41515;BME280;27247;48.020;16.720;2023-03-01T23:35:39;100542.53;;;2.65;82.14
41515;BME280;27247;48.020;16.720;2023-03-01T23:39:49;100532.19;;;2.74;82.18
41515;BME280;27247;48.020;16.720;2023-03-01T23:44:01;100522.06;;;2.68;83.21
41515;BME280;27247;48.020;16.720;2023-03-01T23:48:12;100536.63;;;2.74;83.92